createdAt,value
2023-04-16T00:00:16.294Z,7.88
2023-04-16T00:03:04.440Z,7.83
2023-04-16T00:05:32.928Z,7.80
2023-04-16T00:08:01.067Z,7.79
2023-04-16T00:10:29.012Z,7.81
2023-04-16T00:12:56.917Z,7.76
2023-04-16T00:15:25.008Z,7.79
2023-04-16T00:17:53.012Z,7.78
2023-04-16T00:20:21.214Z,7.77
2023-04-16T00:22:49.073Z,7.81
2023-04-16T00:25:17.053Z,7.79
2023-04-16T00:27:45.113Z,7.79
2023-04-16T00:30:13.397Z,7.79
2023-04-16T00:32:41.718Z,7.77
2023-04-16T00:35:10.529Z,7.81
2023-04-16T00:37:38.538Z,7.81
2023-04-16T00:40:07.670Z,7.84
2023-04-16T00:42:37.149Z,7.81
2023-04-16T00:45:08.384Z,7.80
2023-04-16T00:47:36.740Z,7.78
2023-04-16T00:50:08.020Z,7.78
2023-04-16T00:52:35.990Z,7.78
2023-04-16T00:55:06.463Z,7.77
2023-04-16T00:57:34.468Z,7.75
2023-04-16T01:00:03.129Z,7.75
2023-04-16T01:02:31.574Z,7.75
2023-04-16T01:05:01.539Z,7.72
2023-04-16T01:07:29.652Z,7.74
2023-04-16T01:09:58.110Z,7.69
2023-04-16T01:12:26.081Z,7.66
2023-04-16T01:14:54.158Z,7.69
2023-04-16T01:17:22.113Z,7.70
2023-04-16T01:19:50.099Z,7.67
2023-04-16T01:22:18.168Z,7.67
2023-04-16T01:24:46.261Z,7.65
2023-04-16T01:27:14.219Z,7.63
2023-04-16T01:29:42.340Z,7.63
2023-04-16T01:32:10.589Z,7.58
2023-04-16T01:34:41.733Z,7.58
2023-04-16T01:37:12.161Z,7.59
2023-04-16T01:39:40.113Z,7.60
2023-04-16T01:42:09.178Z,7.58
2023-04-16T01:44:37.448Z,7.62
2023-04-16T01:47:05.617Z,7.59
2023-04-16T01:49:34.059Z,7.61
2023-04-16T01:52:01.946Z,7.60
2023-04-16T01:54:29.843Z,7.56
2023-04-16T01:56:57.783Z,7.57
2023-04-16T01:59:26.163Z,7.54
2023-04-16T02:01:54.251Z,7.54
2023-04-16T02:04:22.438Z,7.55
2023-04-16T02:06:50.667Z,7.56
2023-04-16T02:09:18.885Z,7.53
2023-04-16T02:11:47.243Z,7.52
2023-04-16T02:14:15.583Z,7.52
2023-04-16T02:16:43.898Z,7.50
2023-04-16T02:19:19.288Z,7.52
2023-04-16T02:21:47.821Z,7.51
2023-04-16T02:24:16.142Z,7.48
2023-04-16T02:26:45.232Z,7.49
2023-04-16T02:29:16.741Z,7.48
2023-04-16T02:31:49.374Z,7.46
2023-04-16T02:34:17.532Z,7.48
2023-04-16T02:36:45.827Z,7.47
2023-04-16T02:39:13.821Z,7.45
2023-04-16T02:41:42.186Z,7.41
2023-04-16T02:44:10.055Z,7.43
2023-04-16T02:46:37.961Z,7.44
2023-04-16T02:49:05.972Z,7.42
2023-04-16T02:51:33.863Z,7.45
2023-04-16T02:54:03.410Z,7.40
2023-04-16T02:56:31.776Z,7.39
2023-04-16T02:58:59.768Z,7.37
2023-04-16T03:01:29.155Z,7.36
2023-04-16T03:03:57.274Z,7.35
2023-04-16T03:06:26.345Z,7.33
2023-04-16T03:08:54.409Z,7.31
2023-04-16T03:11:22.359Z,7.34
2023-04-16T03:13:50.475Z,7.35
2023-04-16T03:16:18.490Z,7.31
2023-04-16T03:18:46.570Z,7.35
2023-04-16T03:21:14.548Z,7.37
2023-04-16T03:23:42.505Z,7.33
2023-04-16T03:26:10.517Z,7.32
2023-04-16T03:28:38.824Z,7.32
2023-04-16T03:31:06.887Z,7.31
2023-04-16T03:33:35.827Z,7.32
2023-04-16T03:36:04.672Z,7.29
2023-04-16T03:38:32.714Z,7.25
2023-04-16T03:41:01.209Z,7.27
2023-04-16T03:43:30.707Z,7.26
2023-04-16T03:45:58.657Z,7.28
2023-04-16T03:48:26.673Z,7.29
2023-04-16T03:50:55.021Z,7.24
2023-04-16T03:53:23.137Z,7.23
2023-04-16T03:55:51.836Z,7.27
2023-04-16T03:58:20.330Z,7.26
2023-04-16T04:00:48.605Z,7.24
2023-04-16T04:03:18.090Z,7.23
2023-04-16T04:05:47.372Z,7.20
2023-04-16T04:08:17.408Z,7.18
2023-04-16T04:10:46.119Z,7.19
2023-04-16T04:13:14.357Z,7.19
2023-04-16T04:15:42.354Z,7.20
2023-04-16T04:18:10.514Z,7.19
2023-04-16T04:20:41.728Z,7.20
2023-04-16T04:23:09.834Z,7.18
2023-04-16T04:25:37.923Z,7.20
2023-04-16T04:28:06.102Z,7.17
2023-04-16T04:30:35.927Z,7.19
2023-04-16T04:33:04.185Z,7.18
2023-04-16T04:35:32.504Z,7.21
2023-04-16T04:38:02.675Z,7.24
2023-04-16T04:40:30.931Z,7.21
2023-04-16T04:42:58.881Z,7.23
2023-04-16T04:45:27.421Z,7.24
2023-04-16T04:47:56.547Z,7.27
2023-04-16T04:50:24.726Z,7.26
2023-04-16T04:52:52.771Z,7.29
2023-04-16T04:55:20.938Z,7.30
2023-04-16T04:57:49.470Z,7.32
2023-04-16T05:00:17.542Z,7.34
2023-04-16T05:02:52.317Z,7.35
2023-04-16T05:05:20.639Z,7.43
2023-04-16T05:07:48.653Z,7.42
2023-04-16T05:10:16.787Z,7.43
2023-04-16T05:12:44.910Z,7.42
2023-04-16T05:15:13.361Z,7.46
2023-04-16T05:17:41.439Z,7.47
2023-04-16T05:20:09.633Z,7.50
2023-04-16T05:22:37.677Z,7.54
2023-04-16T05:25:06.020Z,7.51
2023-04-16T05:27:34.092Z,7.50
2023-04-16T05:30:02.808Z,7.49
2023-04-16T05:32:30.802Z,7.49
2023-04-16T05:34:58.889Z,7.51
2023-04-16T05:37:26.886Z,7.51
2023-04-16T05:39:54.828Z,7.57
2023-04-16T05:42:22.729Z,7.57
2023-04-16T05:44:51.194Z,7.59
2023-04-16T05:47:19.265Z,7.60
2023-04-16T05:49:47.252Z,7.64
2023-04-16T05:52:15.479Z,7.68
2023-04-16T05:54:43.530Z,7.74
2023-04-16T05:57:11.849Z,7.75
2023-04-16T05:59:39.821Z,7.73
2023-04-16T06:02:07.847Z,7.75
2023-04-16T06:04:36.147Z,7.70
2023-04-16T06:07:04.064Z,7.72
2023-04-16T06:09:32.090Z,7.69
2023-04-16T06:12:02.237Z,7.71
2023-04-16T06:14:30.420Z,7.76
2023-04-16T06:16:58.451Z,7.77
2023-04-16T06:19:26.465Z,7.75
2023-04-16T06:21:54.589Z,7.75
2023-04-16T06:24:22.668Z,7.74
2023-04-16T06:26:50.821Z,7.78
2023-04-16T06:29:18.809Z,7.78
2023-04-16T06:31:46.845Z,7.79
2023-04-16T06:34:14.929Z,7.85
2023-04-16T06:36:43.033Z,7.94
2023-04-16T06:39:11.277Z,7.99
2023-04-16T06:41:39.423Z,8.03
2023-04-16T06:44:07.395Z,8.09
2023-04-16T06:46:35.413Z,8.11
2023-04-16T06:49:03.402Z,8.13
2023-04-16T06:51:31.494Z,8.14
2023-04-16T06:53:59.730Z,8.13
2023-04-16T06:56:30.736Z,8.09
2023-04-16T06:59:01.165Z,8.05
2023-04-16T07:01:33.935Z,8.00
2023-04-16T07:04:12.073Z,7.97
2023-04-16T07:06:42.508Z,7.95
2023-04-16T07:09:11.038Z,7.91
2023-04-16T07:11:39.616Z,7.89
2023-04-16T07:14:07.619Z,7.89
2023-04-16T07:16:37.965Z,7.87
2023-04-16T07:19:06.212Z,7.84
2023-04-16T07:21:34.132Z,7.82
2023-04-16T07:24:04.127Z,7.84
2023-04-16T07:26:32.109Z,7.88
2023-04-16T07:29:00.073Z,7.88
2023-04-16T07:31:28.017Z,7.91
2023-04-16T07:33:56.120Z,7.95
2023-04-16T07:36:24.292Z,7.96
2023-04-16T07:38:52.225Z,7.96
2023-04-16T07:41:20.158Z,7.98
2023-04-16T07:43:48.148Z,7.97
2023-04-16T07:46:16.337Z,7.98
2023-04-16T07:48:44.365Z,8.03
2023-04-16T07:51:12.347Z,8.05
2023-04-16T07:53:40.624Z,8.08
2023-04-16T07:56:08.936Z,8.09
2023-04-16T07:58:36.916Z,8.10
2023-04-16T08:01:04.935Z,8.05
2023-04-16T08:03:33.720Z,8.04
2023-04-16T08:06:02.340Z,8.03
2023-04-16T08:08:30.515Z,8.05
2023-04-16T08:10:59.507Z,8.02
2023-04-16T08:13:27.574Z,8.05
2023-04-16T08:15:55.614Z,8.02
2023-04-16T08:18:23.742Z,8.05
2023-04-16T08:20:51.816Z,8.07
2023-04-16T08:23:19.753Z,8.10
2023-04-16T08:25:48.028Z,8.18
2023-04-16T08:28:15.978Z,8.26
2023-04-16T08:30:45.760Z,8.32
2023-04-16T08:33:14.364Z,8.33
2023-04-16T08:35:42.367Z,8.28
2023-04-16T08:38:10.386Z,8.33
2023-04-16T08:40:40.088Z,8.33
2023-04-16T08:43:11.760Z,8.36
2023-04-16T08:45:41.867Z,8.34
2023-04-16T08:48:12.604Z,8.42
2023-04-16T08:50:40.905Z,8.47
2023-04-16T08:53:20.180Z,8.45
2023-04-16T08:55:49.604Z,8.51
2023-04-16T08:58:22.613Z,8.54
2023-04-16T09:00:51.810Z,8.54
2023-04-16T09:03:21.883Z,8.53
2023-04-16T09:05:50.618Z,8.53
2023-04-16T09:08:18.694Z,8.55
2023-04-16T09:10:46.705Z,8.61
2023-04-16T09:13:16.686Z,8.60
2023-04-16T09:15:44.730Z,8.65
2023-04-16T09:18:12.804Z,8.79
2023-04-16T09:20:40.828Z,8.87
2023-04-16T09:23:09.414Z,8.84
2023-04-16T09:25:38.679Z,8.81
2023-04-16T09:28:06.726Z,8.77
2023-04-16T09:30:35.141Z,8.75
2023-04-16T09:33:25.312Z,8.77
2023-04-16T09:35:53.408Z,8.66
2023-04-16T09:38:21.360Z,8.65
2023-04-16T09:40:49.589Z,8.62
2023-04-16T09:43:18.115Z,8.62
2023-04-16T09:45:51.300Z,8.64
2023-04-16T09:48:32.307Z,8.72
2023-04-16T09:51:00.849Z,8.92
2023-04-16T09:53:30.295Z,9.17
2023-04-16T09:56:03.289Z,9.37
2023-04-16T09:58:31.244Z,9.62
2023-04-16T10:01:03.199Z,9.69
2023-04-16T10:03:36.789Z,9.67
2023-04-16T10:06:21.234Z,9.58
2023-04-16T10:08:50.543Z,9.59
2023-04-16T10:11:20.141Z,9.73
2023-04-16T10:13:48.449Z,9.68
2023-04-16T10:16:16.658Z,9.56
2023-04-16T10:18:45.754Z,9.62
2023-04-16T10:21:15.374Z,9.80
2023-04-16T10:23:43.737Z,10.02
2023-04-16T10:26:11.998Z,10.13
2023-04-16T10:28:40.385Z,10.37
2023-04-16T10:31:09.008Z,10.47
2023-04-16T10:33:39.576Z,10.68
2023-04-16T10:36:15.500Z,10.77
2023-04-16T10:38:47.782Z,10.88
2023-04-16T10:41:15.886Z,11.18
2023-04-16T10:43:45.436Z,11.52
2023-04-16T10:46:20.061Z,11.93
2023-04-16T10:48:50.563Z,12.38
2023-04-16T10:51:28.549Z,12.64
2023-04-16T10:53:57.779Z,12.28
2023-04-16T10:56:27.152Z,11.54
2023-04-16T10:58:56.328Z,11.53
2023-04-16T11:01:31.755Z,11.29
2023-04-16T11:04:22.173Z,11.07
2023-04-16T11:07:06.170Z,10.82
2023-04-16T11:10:06.116Z,10.78
2023-04-16T11:12:38.356Z,10.48
2023-04-16T11:15:11.097Z,10.51
2023-04-16T11:17:52.010Z,10.59
2023-04-16T11:20:24.668Z,10.73
2023-04-16T11:22:54.751Z,10.74
2023-04-16T11:25:34.318Z,10.68
2023-04-16T11:28:02.687Z,10.56
2023-04-16T11:30:40.866Z,10.30
2023-04-16T11:33:09.886Z,10.16
2023-04-16T11:35:41.559Z,10.02
2023-04-16T11:38:09.649Z,10.00
2023-04-16T11:40:37.716Z,10.15
2023-04-16T11:43:14.085Z,10.22
2023-04-16T11:46:12.849Z,10.28
2023-04-16T11:48:48.197Z,10.30
2023-04-16T11:51:16.289Z,10.20
2023-04-16T11:53:51.474Z,10.13
2023-04-16T11:56:29.829Z,10.00
2023-04-16T11:59:17.622Z,9.94
2023-04-16T12:01:50.693Z,9.84
2023-04-16T12:04:26.865Z,9.79
2023-04-16T12:07:07.448Z,9.70
2023-04-16T12:09:39.376Z,9.62
2023-04-16T12:12:28.703Z,9.57
2023-04-16T12:14:57.722Z,9.54
2023-04-16T12:17:26.277Z,9.62
2023-04-16T12:20:18.285Z,9.68
2023-04-16T12:22:47.899Z,9.72
2023-04-16T12:25:17.330Z,9.73
2023-04-16T12:27:47.967Z,9.74
2023-04-16T12:30:20.172Z,9.75
2023-04-16T12:32:50.893Z,9.83
2023-04-16T12:35:32.038Z,9.91
2023-04-16T12:38:00.497Z,9.93
2023-04-16T12:40:28.677Z,10.03
2023-04-16T12:42:56.998Z,10.10
2023-04-16T12:45:25.121Z,10.11
2023-04-16T12:47:53.155Z,10.12
2023-04-16T12:50:21.906Z,10.12
2023-04-16T12:52:50.076Z,10.12
2023-04-16T12:55:19.635Z,10.16
2023-04-16T12:57:49.155Z,10.14
2023-04-16T13:00:17.229Z,10.13
2023-04-16T13:02:46.072Z,10.15
2023-04-16T13:05:23.627Z,10.17
2023-04-16T13:07:51.639Z,10.17
2023-04-16T13:10:21.961Z,10.15
2023-04-16T13:12:50.037Z,10.06
2023-04-16T13:15:18.343Z,10.02
2023-04-16T13:17:46.308Z,9.98
2023-04-16T13:20:14.290Z,9.87
2023-04-16T13:22:42.276Z,9.75
2023-04-16T13:25:10.242Z,9.62
2023-04-16T13:27:38.209Z,9.60
2023-04-16T13:30:07.836Z,9.54
2023-04-16T13:32:35.861Z,9.47
2023-04-16T13:35:03.863Z,9.37
2023-04-16T13:37:31.796Z,9.38
2023-04-16T13:39:59.675Z,9.36
2023-04-16T13:42:30.674Z,9.29
2023-04-16T13:44:59.075Z,9.32
2023-04-16T13:47:27.176Z,9.31
2023-04-16T13:49:55.508Z,9.29
2023-04-16T13:52:23.484Z,9.30
2023-04-16T13:54:51.731Z,9.29
2023-04-16T13:57:22.799Z,9.29
2023-04-16T13:59:51.051Z,9.32
2023-04-16T14:02:20.984Z,9.39
2023-04-16T14:04:49.145Z,9.43
2023-04-16T14:07:17.283Z,9.54
2023-04-16T14:09:45.269Z,9.49
2023-04-16T14:12:13.242Z,9.44
2023-04-16T14:14:42.006Z,9.43
2023-04-16T14:17:10.155Z,9.38
2023-04-16T14:19:38.262Z,9.43
2023-04-16T14:22:08.736Z,9.37
2023-04-16T14:24:37.480Z,9.38
2023-04-16T14:27:05.708Z,9.35
2023-04-16T14:29:33.869Z,9.38
2023-04-16T14:32:02.157Z,9.40
2023-04-16T14:34:31.586Z,9.31
2023-04-16T14:36:59.686Z,9.36
2023-04-16T14:39:27.763Z,9.40
2023-04-16T14:41:55.924Z,9.33
2023-04-16T14:44:24.068Z,9.31
2023-04-16T14:46:52.096Z,9.42
2023-04-16T14:49:20.164Z,9.35
2023-04-16T14:51:48.468Z,9.40
2023-04-16T14:54:16.521Z,9.39
2023-04-16T14:56:45.961Z,9.37
2023-04-16T14:59:14.299Z,9.33
2023-04-16T15:01:43.727Z,9.35
2023-04-16T15:04:11.836Z,9.30
2023-04-16T15:06:40.105Z,9.24
2023-04-16T15:09:08.921Z,9.29
2023-04-16T15:11:36.998Z,9.25
2023-04-16T15:14:05.705Z,9.23
2023-04-16T15:16:33.712Z,9.23
2023-04-16T15:19:03.679Z,9.21
2023-04-16T15:21:33.058Z,9.24
2023-04-16T15:24:01.305Z,9.22
2023-04-16T15:26:30.230Z,9.15
2023-04-16T15:28:58.336Z,9.09
2023-04-16T15:31:26.988Z,9.12
2023-04-16T15:33:56.207Z,9.11
2023-04-16T15:36:24.113Z,9.13
2023-04-16T15:38:52.007Z,9.18
2023-04-16T15:41:20.086Z,9.20
2023-04-16T15:43:48.019Z,9.22
2023-04-16T15:46:16.510Z,9.24
2023-04-16T15:48:46.177Z,9.22
2023-04-16T15:51:14.437Z,9.22
2023-04-16T15:53:44.956Z,9.18
2023-04-16T15:56:12.985Z,9.17
2023-04-16T15:58:41.576Z,9.18
2023-04-16T16:01:09.606Z,9.17
2023-04-16T16:03:38.056Z,9.14
2023-04-16T16:06:07.745Z,9.11
2023-04-16T16:08:37.388Z,9.10
2023-04-16T16:11:05.750Z,9.10
2023-04-16T16:13:33.990Z,9.08
2023-04-16T16:16:03.623Z,9.10
2023-04-16T16:18:31.920Z,9.09
2023-04-16T16:21:00.440Z,9.03
2023-04-16T16:23:28.606Z,9.00
2023-04-16T16:25:57.015Z,8.98
2023-04-16T16:28:26.302Z,9.00
2023-04-16T16:30:58.981Z,8.96
2023-04-16T16:33:28.827Z,8.91
2023-04-16T16:35:57.085Z,8.87
2023-04-16T16:38:26.128Z,8.86
2023-04-16T16:40:54.141Z,8.81
2023-04-16T16:43:22.604Z,8.77
2023-04-16T16:45:50.632Z,8.80
2023-04-16T16:48:18.826Z,8.76
2023-04-16T16:50:46.779Z,8.71
2023-04-16T16:53:15.099Z,8.72
2023-04-16T16:55:43.210Z,8.71
2023-04-16T16:58:11.364Z,8.68
2023-04-16T17:00:39.501Z,8.65
2023-04-16T17:03:09.282Z,8.65
2023-04-16T17:05:39.402Z,8.61
2023-04-16T17:08:07.704Z,8.61
2023-04-16T17:10:36.000Z,8.60
2023-04-16T17:13:04.047Z,8.60
2023-04-16T17:15:32.158Z,8.58
2023-04-16T17:18:00.343Z,8.63
2023-04-16T17:20:28.535Z,8.61
2023-04-16T17:22:56.521Z,8.51
2023-04-16T17:25:25.130Z,8.44
2023-04-16T17:27:53.457Z,8.40
2023-04-16T17:30:25.583Z,8.40
2023-04-16T17:32:56.994Z,8.39
2023-04-16T17:35:27.083Z,8.35
2023-04-16T17:37:55.570Z,8.32
2023-04-16T17:40:23.737Z,8.26
2023-04-16T17:42:52.014Z,8.21
2023-04-16T17:45:20.153Z,8.20
2023-04-16T17:47:48.220Z,8.22
2023-04-16T17:50:16.444Z,8.16
2023-04-16T17:52:44.632Z,8.15
2023-04-16T17:55:12.677Z,8.10
2023-04-16T17:57:40.978Z,8.08
2023-04-16T18:00:12.860Z,8.02
2023-04-16T18:02:42.092Z,7.98
2023-04-16T18:05:10.503Z,8.00
2023-04-16T18:07:39.373Z,7.99
2023-04-16T18:10:11.565Z,7.97
2023-04-16T18:12:39.555Z,7.98
2023-04-16T18:15:08.235Z,7.98
2023-04-16T18:17:36.356Z,7.95
2023-04-16T18:20:07.310Z,7.89
2023-04-16T18:22:36.992Z,7.90
2023-04-16T18:25:08.038Z,7.90
2023-04-16T18:27:36.113Z,7.90
2023-04-16T18:30:06.418Z,7.87
2023-04-16T18:32:35.552Z,7.85
2023-04-16T18:35:06.444Z,7.81
2023-04-16T18:37:34.446Z,7.78
2023-04-16T18:40:02.569Z,7.78
2023-04-16T18:42:30.866Z,7.76
2023-04-16T18:44:59.419Z,7.69
2023-04-16T18:47:27.690Z,7.70
2023-04-16T18:49:55.960Z,7.67
2023-04-16T18:52:24.076Z,7.68
2023-04-16T18:54:52.091Z,7.66
2023-04-16T18:57:20.094Z,7.69
2023-04-16T18:59:48.519Z,7.65
2023-04-16T19:02:16.591Z,7.66
2023-04-16T19:04:44.753Z,7.67
2023-04-16T19:07:12.753Z,7.67
2023-04-16T19:09:40.966Z,7.63
2023-04-16T19:12:09.268Z,7.61
2023-04-16T19:14:37.555Z,7.58
2023-04-16T19:17:06.717Z,7.56
2023-04-16T19:19:35.754Z,7.55
2023-04-16T19:22:03.902Z,7.52
2023-04-16T19:24:34.161Z,7.48
2023-04-16T19:27:02.719Z,7.46
2023-04-16T19:29:34.349Z,7.44
2023-04-16T19:32:02.797Z,7.44
2023-04-16T19:34:31.159Z,7.42
2023-04-16T19:36:59.204Z,7.42
2023-04-16T19:39:30.177Z,7.37
2023-04-16T19:41:58.544Z,7.33
2023-04-16T19:44:28.690Z,7.32
2023-04-16T19:46:56.677Z,7.34
2023-04-16T19:49:34.462Z,7.38
2023-04-16T19:52:02.824Z,7.34
2023-04-16T19:54:33.990Z,7.32
2023-04-16T19:57:03.660Z,7.29
2023-04-16T19:59:32.622Z,7.28
2023-04-16T20:02:02.879Z,7.22
2023-04-16T20:04:30.935Z,7.18
2023-04-16T20:06:59.105Z,7.16
2023-04-16T20:09:27.111Z,7.18
2023-04-16T20:11:55.362Z,7.20
2023-04-16T20:14:23.542Z,7.17
2023-04-16T20:16:52.280Z,7.15
2023-04-16T20:19:20.460Z,7.14
2023-04-16T20:21:48.473Z,7.16
2023-04-16T20:24:16.375Z,7.19
2023-04-16T20:26:44.301Z,7.09
2023-04-16T20:29:12.473Z,7.10
2023-04-16T20:31:42.922Z,7.10
2023-04-16T20:34:10.921Z,7.09
2023-04-16T20:36:39.034Z,7.10
2023-04-16T20:39:07.341Z,7.05
2023-04-16T20:41:35.484Z,7.03
2023-04-16T20:44:05.691Z,7.02
2023-04-16T20:46:34.442Z,7.00
2023-04-16T20:49:02.566Z,6.99
2023-04-16T20:51:31.980Z,6.97
2023-04-16T20:53:59.929Z,6.97
2023-04-16T20:56:27.938Z,6.97
2023-04-16T20:58:56.123Z,6.96
2023-04-16T21:01:24.275Z,6.95
2023-04-16T21:03:52.525Z,6.95
2023-04-16T21:06:22.634Z,6.95
2023-04-16T21:08:50.894Z,6.93
2023-04-16T21:11:19.009Z,6.94
2023-04-16T21:13:47.212Z,6.93
2023-04-16T21:16:15.698Z,6.89
2023-04-16T21:18:43.915Z,6.91
2023-04-16T21:21:11.936Z,6.87
2023-04-16T21:23:39.955Z,6.88
2023-04-16T21:26:08.110Z,6.87
2023-04-16T21:28:36.040Z,6.87
2023-04-16T21:31:04.196Z,6.84
2023-04-16T21:33:32.300Z,6.85
2023-04-16T21:36:00.378Z,6.82
2023-04-16T21:38:28.387Z,6.85
2023-04-16T21:41:00.194Z,6.86
2023-04-16T21:43:30.626Z,6.84
2023-04-16T21:45:59.478Z,6.82
2023-04-16T21:48:28.620Z,6.83
2023-04-16T21:50:58.350Z,6.87
2023-04-16T21:53:28.240Z,6.83
2023-04-16T21:55:56.272Z,6.83
2023-04-16T21:58:25.941Z,6.84
2023-04-16T22:00:54.204Z,6.81
2023-04-16T22:03:33.560Z,6.85
2023-04-16T22:06:01.962Z,6.81
2023-04-16T22:08:30.338Z,6.82
2023-04-16T22:10:59.533Z,6.80
2023-04-16T22:13:30.179Z,6.77
2023-04-16T22:15:58.346Z,6.77
2023-04-16T22:18:26.492Z,6.79
2023-04-16T22:20:55.117Z,6.75
2023-04-16T22:23:23.512Z,6.76
2023-04-16T22:25:54.296Z,6.72
2023-04-16T22:28:22.533Z,6.69
2023-04-16T22:30:50.533Z,6.72
2023-04-16T22:33:18.677Z,6.73
2023-04-16T22:35:46.943Z,6.70
2023-04-16T22:38:15.103Z,6.72
2023-04-16T22:40:43.132Z,6.70
2023-04-16T22:43:11.463Z,6.70
2023-04-16T22:45:41.306Z,6.66
2023-04-16T22:48:09.311Z,6.65
2023-04-16T22:50:37.347Z,6.64
2023-04-16T22:53:05.721Z,6.64
2023-04-16T22:55:33.795Z,6.62
2023-04-16T22:58:01.755Z,6.63
2023-04-16T23:00:29.757Z,6.62
2023-04-16T23:02:58.136Z,6.55
2023-04-16T23:05:26.318Z,6.56
2023-04-16T23:07:54.439Z,6.54
2023-04-16T23:10:22.486Z,6.52
2023-04-16T23:12:50.679Z,6.50
2023-04-16T23:15:19.001Z,6.46
2023-04-16T23:17:47.620Z,6.47
2023-04-16T23:20:15.763Z,6.45
2023-04-16T23:22:43.799Z,6.43
2023-04-16T23:25:11.749Z,6.45
2023-04-16T23:27:39.728Z,6.44
2023-04-16T23:30:08.368Z,6.40
2023-04-16T23:32:36.372Z,6.33
2023-04-16T23:35:04.670Z,6.34
2023-04-16T23:37:32.642Z,6.34
2023-04-16T23:40:00.598Z,6.32
2023-04-16T23:42:28.636Z,6.33
2023-04-16T23:44:56.629Z,6.30
2023-04-16T23:47:24.718Z,6.28
2023-04-16T23:49:52.668Z,6.28
2023-04-16T23:52:20.729Z,6.29
2023-04-16T23:54:48.628Z,6.25
2023-04-16T23:57:16.630Z,6.22
2023-04-16T23:59:44.606Z,6.20
